sensor_id;sensor_type;location;lat;lon;timestamp;temperature;humidity
12335;DHT22;6233;51.560;9.986;2022-11-03T00:00:51;9.30;99.90
12335;DHT22;6233;51.560;9.986;2022-11-03T00:03:52;9.20;99.90
12335;DHT22;6233;51.560;9.986;2022-11-03T00:06:57;9.20;99.90
12335;DHT22;6233;51.560;9.986;2022-11-03T00:09:59;9.20;99.90
12335;DHT22;6233;51.560;9.986;2022-11-03T00:13:00;9.10;99.90
12335;DHT22;6233;51.560;9.986;2022-11-03T00:16:02;9.30;99.90
12335;DHT22;6233;51.560;9.986;2022-11-03T00:19:05;9.20;99.90
12335;DHT22;6233;51.560;9.986;2022-11-03T00:22:08;9.10;99.90
12335;DHT22;6233;51.560;9.986;2022-11-03T00:25:10;9.30;99.90
12335;DHT22;6233;51.560;9.986;2022-11-03T00:28:11;9.30;99.90
12335;DHT22;6233;51.560;9.986;2022-11-03T00:31:19;9.30;99.90
12335;DHT22;6233;51.560;9.986;2022-11-03T00:34:20;9.00;99.90
12335;DHT22;6233;51.560;9.986;2022-11-03T00:37:22;9.10;99.90
12335;DHT22;6233;51.560;9.986;2022-11-03T00:40:24;9.20;99.90
12335;DHT22;6233;51.560;9.986;2022-11-03T00:43:26;9.20;99.90
12335;DHT22;6233;51.560;9.986;2022-11-03T00:46:29;9.00;99.90
12335;DHT22;6233;51.560;9.986;2022-11-03T00:49:31;9.10;99.90
12335;DHT22;6233;51.560;9.986;2022-11-03T00:52:32;9.20;99.90
12335;DHT22;6233;51.560;9.986;2022-11-03T00:55:34;8.90;99.90
12335;DHT22;6233;51.560;9.986;2022-11-03T00:58:36;9.20;99.90
12335;DHT22;6233;51.560;9.986;2022-11-03T01:01:40;9.10;99.90
12335;DHT22;6233;51.560;9.986;2022-11-03T01:04:50;8.00;99.90
12335;DHT22;6233;51.560;9.986;2022-11-03T01:08:10;9.10;99.90
12335;DHT22;6233;51.560;9.986;2022-11-03T01:11:17;8.80;99.90
12335;DHT22;6233;51.560;9.986;2022-11-03T01:14:43;8.90;99.90
12335;DHT22;6233;51.560;9.986;2022-11-03T01:17:45;8.90;99.90
12335;DHT22;6233;51.560;9.986;2022-11-03T01:20:53;8.80;99.90
12335;DHT22;6233;51.560;9.986;2022-11-03T01:23:57;8.80;99.90
12335;DHT22;6233;51.560;9.986;2022-11-03T01:27:00;8.90;99.90
12335;DHT22;6233;51.560;9.986;2022-11-03T01:30:02;8.80;99.90
12335;DHT22;6233;51.560;9.986;2022-11-03T01:33:03;8.80;99.90
12335;DHT22;6233;51.560;9.986;2022-11-03T01:36:06;8.90;99.90
12335;DHT22;6233;51.560;9.986;2022-11-03T01:39:13;8.80;99.90
12335;DHT22;6233;51.560;9.986;2022-11-03T01:42:15;8.80;99.90
12335;DHT22;6233;51.560;9.986;2022-11-03T01:45:17;8.80;99.90
12335;DHT22;6233;51.560;9.986;2022-11-03T01:48:19;8.80;99.90
12335;DHT22;6233;51.560;9.986;2022-11-03T01:51:22;8.80;99.90
12335;DHT22;6233;51.560;9.986;2022-11-03T01:54:25;8.80;99.90
12335;DHT22;6233;51.560;9.986;2022-11-03T01:57:59;8.80;99.90
12335;DHT22;6233;51.560;9.986;2022-11-03T02:01:06;8.80;99.90
12335;DHT22;6233;51.560;9.986;2022-11-03T02:04:29;8.80;99.90
12335;DHT22;6233;51.560;9.986;2022-11-03T02:07:39;8.80;99.90
12335;DHT22;6233;51.560;9.986;2022-11-03T02:10:41;8.80;99.90
12335;DHT22;6233;51.560;9.986;2022-11-03T02:13:43;8.70;99.90
12335;DHT22;6233;51.560;9.986;2022-11-03T02:16:55;8.90;99.90
12335;DHT22;6233;51.560;9.986;2022-11-03T02:20:13;8.90;99.90
12335;DHT22;6233;51.560;9.986;2022-11-03T02:23:25;8.90;99.90
12335;DHT22;6233;51.560;9.986;2022-11-03T02:26:31;9.00;99.90
12335;DHT22;6233;51.560;9.986;2022-11-03T02:29:33;8.90;99.90
12335;DHT22;6233;51.560;9.986;2022-11-03T02:39:25;8.90;99.90
12335;DHT22;6233;51.560;9.986;2022-11-03T02:42:30;8.90;99.90
12335;DHT22;6233;51.560;9.986;2022-11-03T02:45:32;8.80;99.90
12335;DHT22;6233;51.560;9.986;2022-11-03T02:48:33;8.80;99.90
12335;DHT22;6233;51.560;9.986;2022-11-03T02:51:35;8.80;99.90
12335;DHT22;6233;51.560;9.986;2022-11-03T02:54:40;8.70;99.90
12335;DHT22;6233;51.560;9.986;2022-11-03T02:57:52;8.70;99.90
12335;DHT22;6233;51.560;9.986;2022-11-03T03:01:11;8.60;99.90
12335;DHT22;6233;51.560;9.986;2022-11-03T03:04:24;8.60;99.90
12335;DHT22;6233;51.560;9.986;2022-11-03T03:07:30;8.70;99.90
12335;DHT22;6233;51.560;9.986;2022-11-03T03:10:40;8.70;99.90
12335;DHT22;6233;51.560;9.986;2022-11-03T03:13:43;8.70;99.90
12335;DHT22;6233;51.560;9.986;2022-11-03T03:17:03;8.70;99.90
12335;DHT22;6233;51.560;9.986;2022-11-03T03:20:31;8.70;99.90
12335;DHT22;6233;51.560;9.986;2022-11-03T03:23:36;8.70;99.90
12335;DHT22;6233;51.560;9.986;2022-11-03T03:26:43;8.70;99.90
12335;DHT22;6233;51.560;9.986;2022-11-03T03:29:55;8.70;99.90
12335;DHT22;6233;51.560;9.986;2022-11-03T03:32:59;8.70;99.90
12335;DHT22;6233;51.560;9.986;2022-11-03T03:36:05;8.50;99.90
12335;DHT22;6233;51.560;9.986;2022-11-03T03:39:09;8.50;99.90
12335;DHT22;6233;51.560;9.986;2022-11-03T03:42:13;8.50;99.90
12335;DHT22;6233;51.560;9.986;2022-11-03T03:45:17;8.50;99.90
12335;DHT22;6233;51.560;9.986;2022-11-03T03:48:21;8.50;99.90
12335;DHT22;6233;51.560;9.986;2022-11-03T03:51:25;8.50;99.90
12335;DHT22;6233;51.560;9.986;2022-11-03T03:54:27;8.50;99.90
12335;DHT22;6233;51.560;9.986;2022-11-03T03:57:30;8.50;99.90
12335;DHT22;6233;51.560;9.986;2022-11-03T04:00:32;8.40;99.90
12335;DHT22;6233;51.560;9.986;2022-11-03T04:03:34;8.30;99.90
12335;DHT22;6233;51.560;9.986;2022-11-03T04:06:35;8.30;99.90
12335;DHT22;6233;51.560;9.986;2022-11-03T04:09:37;8.30;99.90
12335;DHT22;6233;51.560;9.986;2022-11-03T04:12:40;8.20;99.90
12335;DHT22;6233;51.560;9.986;2022-11-03T04:16:00;8.20;99.90
12335;DHT22;6233;51.560;9.986;2022-11-03T04:19:37;8.30;99.90
12335;DHT22;6233;51.560;9.986;2022-11-03T04:22:58;8.20;99.90
12335;DHT22;6233;51.560;9.986;2022-11-03T04:26:00;8.30;99.90
12335;DHT22;6233;51.560;9.986;2022-11-03T04:29:05;8.20;99.90
12335;DHT22;6233;51.560;9.986;2022-11-03T04:32:16;8.20;99.90
12335;DHT22;6233;51.560;9.986;2022-11-03T04:35:21;8.20;99.90
12335;DHT22;6233;51.560;9.986;2022-11-03T04:38:25;8.30;99.90
12335;DHT22;6233;51.560;9.986;2022-11-03T04:41:31;8.30;99.90
12335;DHT22;6233;51.560;9.986;2022-11-03T04:44:33;8.30;99.90
12335;DHT22;6233;51.560;9.986;2022-11-03T04:47:35;8.30;99.90
12335;DHT22;6233;51.560;9.986;2022-11-03T04:50:39;8.30;99.90
12335;DHT22;6233;51.560;9.986;2022-11-03T04:53:55;8.30;99.90
12335;DHT22;6233;51.560;9.986;2022-11-03T04:56:59;8.30;99.90
12335;DHT22;6233;51.560;9.986;2022-11-03T05:00:03;8.30;99.90
12335;DHT22;6233;51.560;9.986;2022-11-03T05:03:12;8.30;99.90
12335;DHT22;6233;51.560;9.986;2022-11-03T05:06:27;8.40;99.90
12335;DHT22;6233;51.560;9.986;2022-11-03T05:09:30;8.40;99.90
12335;DHT22;6233;51.560;9.986;2022-11-03T05:12:32;8.30;99.90
12335;DHT22;6233;51.560;9.986;2022-11-03T05:15:37;8.40;99.90
12335;DHT22;6233;51.560;9.986;2022-11-03T05:18:43;8.50;99.90
12335;DHT22;6233;51.560;9.986;2022-11-03T05:21:49;8.50;99.90
12335;DHT22;6233;51.560;9.986;2022-11-03T05:25:01;8.50;99.90
12335;DHT22;6233;51.560;9.986;2022-11-03T05:31:30;8.50;99.90
12335;DHT22;6233;51.560;9.986;2022-11-03T05:34:43;8.50;99.90
12335;DHT22;6233;51.560;9.986;2022-11-03T05:37:46;8.50;99.90
12335;DHT22;6233;51.560;9.986;2022-11-03T05:40:50;8.50;99.90
12335;DHT22;6233;51.560;9.986;2022-11-03T05:44:40;8.50;99.90
12335;DHT22;6233;51.560;9.986;2022-11-03T05:47:21;8.50;99.90
12335;DHT22;6233;51.560;9.986;2022-11-03T05:50:27;8.40;99.90
12335;DHT22;6233;51.560;9.986;2022-11-03T05:53:31;8.40;99.90
12335;DHT22;6233;51.560;9.986;2022-11-03T05:56:38;8.40;99.90
12335;DHT22;6233;51.560;9.986;2022-11-03T05:59:46;8.40;99.90
12335;DHT22;6233;51.560;9.986;2022-11-03T06:02:48;8.50;99.90
12335;DHT22;6233;51.560;9.986;2022-11-03T06:05:51;8.60;99.90
12335;DHT22;6233;51.560;9.986;2022-11-03T06:08:54;8.40;99.90
12335;DHT22;6233;51.560;9.986;2022-11-03T06:12:01;8.50;99.90
12335;DHT22;6233;51.560;9.986;2022-11-03T06:15:21;8.40;99.90
12335;DHT22;6233;51.560;9.986;2022-11-03T06:18:30;8.50;99.90
12335;DHT22;6233;51.560;9.986;2022-11-03T06:21:32;8.50;99.90
12335;DHT22;6233;51.560;9.986;2022-11-03T06:24:34;8.50;99.90
12335;DHT22;6233;51.560;9.986;2022-11-03T06:27:36;8.50;99.90
12335;DHT22;6233;51.560;9.986;2022-11-03T06:30:41;8.50;99.90
12335;DHT22;6233;51.560;9.986;2022-11-03T06:33:48;8.60;99.90
12335;DHT22;6233;51.560;9.986;2022-11-03T06:36:50;8.60;99.90
12335;DHT22;6233;51.560;9.986;2022-11-03T06:40:01;8.60;99.90
12335;DHT22;6233;51.560;9.986;2022-11-03T06:43:21;8.60;99.90
12335;DHT22;6233;51.560;9.986;2022-11-03T06:46:24;8.60;99.90
12335;DHT22;6233;51.560;9.986;2022-11-03T06:49:32;8.70;99.90
12335;DHT22;6233;51.560;9.986;2022-11-03T06:52:37;8.70;99.90
12335;DHT22;6233;51.560;9.986;2022-11-03T06:55:40;8.70;99.90
12335;DHT22;6233;51.560;9.986;2022-11-03T06:58:42;8.80;99.90
12335;DHT22;6233;51.560;9.986;2022-11-03T07:01:46;8.80;99.90
12335;DHT22;6233;51.560;9.986;2022-11-03T07:04:52;8.80;99.90
12335;DHT22;6233;51.560;9.986;2022-11-03T07:07:59;8.80;99.90
12335;DHT22;6233;51.560;9.986;2022-11-03T07:14:18;8.80;99.90
12335;DHT22;6233;51.560;9.986;2022-11-03T07:17:21;8.80;99.90
12335;DHT22;6233;51.560;9.986;2022-11-03T07:20:24;8.80;99.90
12335;DHT22;6233;51.560;9.986;2022-11-03T07:23:29;8.90;99.90
12335;DHT22;6233;51.560;9.986;2022-11-03T07:26:32;9.00;99.90
12335;DHT22;6233;51.560;9.986;2022-11-03T07:29:34;9.00;99.90
12335;DHT22;6233;51.560;9.986;2022-11-03T07:32:38;9.20;99.90
12335;DHT22;6233;51.560;9.986;2022-11-03T07:35:43;9.20;99.90
12335;DHT22;6233;51.560;9.986;2022-11-03T07:39:10;9.50;99.90
12335;DHT22;6233;51.560;9.986;2022-11-03T07:45:41;9.50;99.90
12335;DHT22;6233;51.560;9.986;2022-11-03T07:48:45;9.40;99.90
12335;DHT22;6233;51.560;9.986;2022-11-03T07:51:47;9.50;99.90
12335;DHT22;6233;51.560;9.986;2022-11-03T07:54:54;9.50;99.90
12335;DHT22;6233;51.560;9.986;2022-11-03T07:57:58;9.50;99.90
12335;DHT22;6233;51.560;9.986;2022-11-03T08:01:01;9.70;99.90
12335;DHT22;6233;51.560;9.986;2022-11-03T08:04:11;9.50;99.90
12335;DHT22;6233;51.560;9.986;2022-11-03T08:07:14;9.50;99.90
12335;DHT22;6233;51.560;9.986;2022-11-03T08:10:16;9.50;99.90
12335;DHT22;6233;51.560;9.986;2022-11-03T08:13:20;9.60;99.90
12335;DHT22;6233;51.560;9.986;2022-11-03T08:16:22;9.70;99.90
12335;DHT22;6233;51.560;9.986;2022-11-03T08:19:24;9.80;99.90
12335;DHT22;6233;51.560;9.986;2022-11-03T08:22:25;9.70;99.90
12335;DHT22;6233;51.560;9.986;2022-11-03T08:25:30;9.80;99.90
12335;DHT22;6233;51.560;9.986;2022-11-03T08:28:35;9.60;99.90
12335;DHT22;6233;51.560;9.986;2022-11-03T08:31:37;9.90;99.90
12335;DHT22;6233;51.560;9.986;2022-11-03T08:34:46;9.90;99.90
12335;DHT22;6233;51.560;9.986;2022-11-03T08:37:55;9.70;99.90
12335;DHT22;6233;51.560;9.986;2022-11-03T08:40:57;9.90;99.90
12335;DHT22;6233;51.560;9.986;2022-11-03T08:44:01;9.90;99.90
12335;DHT22;6233;51.560;9.986;2022-11-03T08:47:02;10.00;99.90
12335;DHT22;6233;51.560;9.986;2022-11-03T08:50:05;10.20;99.90
12335;DHT22;6233;51.560;9.986;2022-11-03T08:53:07;10.20;99.90
12335;DHT22;6233;51.560;9.986;2022-11-03T08:56:12;10.30;99.90
12335;DHT22;6233;51.560;9.986;2022-11-03T08:59:17;10.40;99.90
12335;DHT22;6233;51.560;9.986;2022-11-03T09:02:19;10.50;99.90
12335;DHT22;6233;51.560;9.986;2022-11-03T09:05:21;10.60;99.90
12335;DHT22;6233;51.560;9.986;2022-11-03T09:08:22;10.80;99.90
12335;DHT22;6233;51.560;9.986;2022-11-03T09:11:44;11.10;99.90
12335;DHT22;6233;51.560;9.986;2022-11-03T09:14:45;11.40;99.90
12335;DHT22;6233;51.560;9.986;2022-11-03T09:17:47;11.50;99.90
12335;DHT22;6233;51.560;9.986;2022-11-03T09:20:49;11.70;99.90
12335;DHT22;6233;51.560;9.986;2022-11-03T09:23:53;11.70;99.90
12335;DHT22;6233;51.560;9.986;2022-11-03T09:26:55;11.80;99.90
12335;DHT22;6233;51.560;9.986;2022-11-03T09:30:04;11.90;99.90
12335;DHT22;6233;51.560;9.986;2022-11-03T09:33:15;12.10;99.90
12335;DHT22;6233;51.560;9.986;2022-11-03T09:36:16;12.30;99.90
12335;DHT22;6233;51.560;9.986;2022-11-03T09:39:18;12.40;99.90
12335;DHT22;6233;51.560;9.986;2022-11-03T09:42:20;12.50;99.90
12335;DHT22;6233;51.560;9.986;2022-11-03T09:45:22;12.60;99.90
12335;DHT22;6233;51.560;9.986;2022-11-03T09:48:24;12.50;99.90
12335;DHT22;6233;51.560;9.986;2022-11-03T09:51:26;12.40;99.90
12335;DHT22;6233;51.560;9.986;2022-11-03T09:54:30;12.50;99.90
12335;DHT22;6233;51.560;9.986;2022-11-03T09:57:32;12.50;99.90
12335;DHT22;6233;51.560;9.986;2022-11-03T10:00:33;12.50;99.90
12335;DHT22;6233;51.560;9.986;2022-11-03T10:03:35;12.60;99.90
12335;DHT22;6233;51.560;9.986;2022-11-03T10:06:37;12.50;99.90
12335;DHT22;6233;51.560;9.986;2022-11-03T10:09:46;12.40;99.90
12335;DHT22;6233;51.560;9.986;2022-11-03T10:12:51;12.30;99.90
12335;DHT22;6233;51.560;9.986;2022-11-03T10:16:14;12.10;99.90
12335;DHT22;6233;51.560;9.986;2022-11-03T10:19:16;12.00;99.90
12335;DHT22;6233;51.560;9.986;2022-11-03T10:22:20;12.00;99.90
12335;DHT22;6233;51.560;9.986;2022-11-03T10:28:39;12.00;99.90
12335;DHT22;6233;51.560;9.986;2022-11-03T10:31:41;12.00;99.90
12335;DHT22;6233;51.560;9.986;2022-11-03T10:34:44;12.10;99.90
12335;DHT22;6233;51.560;9.986;2022-11-03T10:37:46;12.20;99.90
12335;DHT22;6233;51.560;9.986;2022-11-03T10:40:52;12.30;99.90
12335;DHT22;6233;51.560;9.986;2022-11-03T10:44:20;12.30;99.90
12335;DHT22;6233;51.560;9.986;2022-11-03T10:47:32;12.20;99.90
12335;DHT22;6233;51.560;9.986;2022-11-03T10:50:34;12.20;99.90
12335;DHT22;6233;51.560;9.986;2022-11-03T10:53:36;12.10;99.90
12335;DHT22;6233;51.560;9.986;2022-11-03T10:56:38;12.10;99.90
12335;DHT22;6233;51.560;9.986;2022-11-03T10:59:40;12.10;99.90
12335;DHT22;6233;51.560;9.986;2022-11-03T11:02:44;12.10;99.90
12335;DHT22;6233;51.560;9.986;2022-11-03T11:05:46;12.10;99.90
12335;DHT22;6233;51.560;9.986;2022-11-03T11:09:00;12.20;99.90
12335;DHT22;6233;51.560;9.986;2022-11-03T11:12:03;12.30;99.90
12335;DHT22;6233;51.560;9.986;2022-11-03T11:15:47;12.20;99.90
12335;DHT22;6233;51.560;9.986;2022-11-03T11:18:59;12.20;99.90
12335;DHT22;6233;51.560;9.986;2022-11-03T11:22:01;12.20;99.90
12335;DHT22;6233;51.560;9.986;2022-11-03T11:25:13;12.20;99.90
12335;DHT22;6233;51.560;9.986;2022-11-03T11:28:20;12.30;99.90
12335;DHT22;6233;51.560;9.986;2022-11-03T11:31:32;12.20;99.90
12335;DHT22;6233;51.560;9.986;2022-11-03T11:37:36;12.20;99.90
12335;DHT22;6233;51.560;9.986;2022-11-03T11:40:50;12.20;99.90
12335;DHT22;6233;51.560;9.986;2022-11-03T11:44:38;12.20;99.90
12335;DHT22;6233;51.560;9.986;2022-11-03T11:47:45;12.20;99.90
12335;DHT22;6233;51.560;9.986;2022-11-03T11:50:50;12.20;99.90
12335;DHT22;6233;51.560;9.986;2022-11-03T11:53:53;12.20;99.90
12335;DHT22;6233;51.560;9.986;2022-11-03T11:57:20;12.20;99.90
12335;DHT22;6233;51.560;9.986;2022-11-03T12:00:24;12.30;99.90
12335;DHT22;6233;51.560;9.986;2022-11-03T12:03:32;12.10;99.90
12335;DHT22;6233;51.560;9.986;2022-11-03T12:06:45;12.20;99.90
12335;DHT22;6233;51.560;9.986;2022-11-03T12:09:47;12.10;99.90
12335;DHT22;6233;51.560;9.986;2022-11-03T12:12:49;12.10;99.90
12335;DHT22;6233;51.560;9.986;2022-11-03T12:15:56;12.10;99.90
12335;DHT22;6233;51.560;9.986;2022-11-03T12:19:36;12.10;99.90
12335;DHT22;6233;51.560;9.986;2022-11-03T12:22:40;12.10;99.90
12335;DHT22;6233;51.560;9.986;2022-11-03T12:25:42;12.10;99.90
12335;DHT22;6233;51.560;9.986;2022-11-03T12:28:44;12.10;99.90
12335;DHT22;6233;51.560;9.986;2022-11-03T12:31:46;12.10;99.90
12335;DHT22;6233;51.560;9.986;2022-11-03T12:34:51;12.30;99.90
12335;DHT22;6233;51.560;9.986;2022-11-03T12:37:56;12.10;99.90
12335;DHT22;6233;51.560;9.986;2022-11-03T12:40:58;12.10;99.90
12335;DHT22;6233;51.560;9.986;2022-11-03T12:44:20;12.20;99.90
12335;DHT22;6233;51.560;9.986;2022-11-03T12:47:22;12.10;99.90
12335;DHT22;6233;51.560;9.986;2022-11-03T12:50:23;12.10;99.90
12335;DHT22;6233;51.560;9.986;2022-11-03T12:53:25;12.10;99.90
12335;DHT22;6233;51.560;9.986;2022-11-03T12:56:27;12.20;99.90
12335;DHT22;6233;51.560;9.986;2022-11-03T12:59:28;12.10;99.90
12335;DHT22;6233;51.560;9.986;2022-11-03T13:02:30;12.20;99.90
12335;DHT22;6233;51.560;9.986;2022-11-03T13:05:32;12.10;99.90
12335;DHT22;6233;51.560;9.986;2022-11-03T13:08:36;12.20;99.90
12335;DHT22;6233;51.560;9.986;2022-11-03T13:11:38;12.10;99.90
12335;DHT22;6233;51.560;9.986;2022-11-03T13:15:05;12.10;99.90
12335;DHT22;6233;51.560;9.986;2022-11-03T13:18:07;12.20;99.90
12335;DHT22;6233;51.560;9.986;2022-11-03T13:21:28;12.20;99.90
12335;DHT22;6233;51.560;9.986;2022-11-03T13:24:29;12.20;99.90
12335;DHT22;6233;51.560;9.986;2022-11-03T13:27:31;12.20;99.90
12335;DHT22;6233;51.560;9.986;2022-11-03T13:30:33;12.20;99.90
12335;DHT22;6233;51.560;9.986;2022-11-03T13:33:34;12.10;99.90
12335;DHT22;6233;51.560;9.986;2022-11-03T13:36:36;12.20;99.90
12335;DHT22;6233;51.560;9.986;2022-11-03T13:39:37;12.20;99.90
12335;DHT22;6233;51.560;9.986;2022-11-03T13:42:39;12.20;99.90
12335;DHT22;6233;51.560;9.986;2022-11-03T13:45:41;12.20;99.90
12335;DHT22;6233;51.560;9.986;2022-11-03T13:48:42;12.20;99.90
12335;DHT22;6233;51.560;9.986;2022-11-03T13:52:04;12.20;99.90
12335;DHT22;6233;51.560;9.986;2022-11-03T13:55:06;12.20;99.90
12335;DHT22;6233;51.560;9.986;2022-11-03T13:58:27;12.20;99.90
12335;DHT22;6233;51.560;9.986;2022-11-03T14:01:49;12.20;99.90
12335;DHT22;6233;51.560;9.986;2022-11-03T14:05:11;12.20;99.90
12335;DHT22;6233;51.560;9.986;2022-11-03T14:08:14;12.30;99.90
12335;DHT22;6233;51.560;9.986;2022-11-03T14:11:16;12.30;99.90
12335;DHT22;6233;51.560;9.986;2022-11-03T14:14:36;12.20;99.90
12335;DHT22;6233;51.560;9.986;2022-11-03T14:17:38;12.20;99.90
12335;DHT22;6233;51.560;9.986;2022-11-03T14:20:40;12.10;99.90
12335;DHT22;6233;51.560;9.986;2022-11-03T14:23:42;12.10;99.90
12335;DHT22;6233;51.560;9.986;2022-11-03T14:26:44;12.10;99.90
12335;DHT22;6233;51.560;9.986;2022-11-03T14:29:46;12.10;99.90
12335;DHT22;6233;51.560;9.986;2022-11-03T14:32:51;12.10;99.90
12335;DHT22;6233;51.560;9.986;2022-11-03T14:35:59;12.00;99.90
12335;DHT22;6233;51.560;9.986;2022-11-03T14:39:01;12.10;99.90
12335;DHT22;6233;51.560;9.986;2022-11-03T14:42:10;12.00;99.90
12335;DHT22;6233;51.560;9.986;2022-11-03T14:45:16;11.90;99.90
12335;DHT22;6233;51.560;9.986;2022-11-03T14:48:20;11.90;99.90
12335;DHT22;6233;51.560;9.986;2022-11-03T14:51:22;11.80;99.90
12335;DHT22;6233;51.560;9.986;2022-11-03T14:54:24;11.90;99.90
12335;DHT22;6233;51.560;9.986;2022-11-03T14:57:26;11.90;99.90
12335;DHT22;6233;51.560;9.986;2022-11-03T15:00:27;11.90;99.90
12335;DHT22;6233;51.560;9.986;2022-11-03T15:03:29;11.80;99.90
12335;DHT22;6233;51.560;9.986;2022-11-03T15:06:31;11.80;99.90
12335;DHT22;6233;51.560;9.986;2022-11-03T15:09:32;11.80;99.90
12335;DHT22;6233;51.560;9.986;2022-11-03T15:12:34;11.80;99.90
12335;DHT22;6233;51.560;9.986;2022-11-03T15:15:36;11.80;99.90
12335;DHT22;6233;51.560;9.986;2022-11-03T15:18:37;11.70;99.90
12335;DHT22;6233;51.560;9.986;2022-11-03T15:21:39;11.80;99.90
12335;DHT22;6233;51.560;9.986;2022-11-03T15:24:41;11.80;99.90
12335;DHT22;6233;51.560;9.986;2022-11-03T15:28:02;11.70;99.90
12335;DHT22;6233;51.560;9.986;2022-11-03T15:31:05;11.70;99.90
12335;DHT22;6233;51.560;9.986;2022-11-03T15:34:06;11.70;99.90
12335;DHT22;6233;51.560;9.986;2022-11-03T15:37:09;11.70;99.90
12335;DHT22;6233;51.560;9.986;2022-11-03T15:40:13;11.80;99.90
12335;DHT22;6233;51.560;9.986;2022-11-03T15:43:15;11.80;99.90
12335;DHT22;6233;51.560;9.986;2022-11-03T15:46:17;11.70;99.90
12335;DHT22;6233;51.560;9.986;2022-11-03T15:49:20;11.90;99.90
12335;DHT22;6233;51.560;9.986;2022-11-03T15:52:22;11.90;99.90
12335;DHT22;6233;51.560;9.986;2022-11-03T15:55:24;11.70;99.90
12335;DHT22;6233;51.560;9.986;2022-11-03T15:58:25;11.70;99.90
12335;DHT22;6233;51.560;9.986;2022-11-03T16:01:27;11.70;99.90
12335;DHT22;6233;51.560;9.986;2022-11-03T16:04:30;11.90;99.90
12335;DHT22;6233;51.560;9.986;2022-11-03T16:07:31;11.80;99.90
12335;DHT22;6233;51.560;9.986;2022-11-03T16:10:36;11.60;99.90
12335;DHT22;6233;51.560;9.986;2022-11-03T16:13:38;11.80;99.90
12335;DHT22;6233;51.560;9.986;2022-11-03T16:16:40;11.70;99.90
12335;DHT22;6233;51.560;9.986;2022-11-03T16:19:42;11.60;99.90
12335;DHT22;6233;51.560;9.986;2022-11-03T16:22:43;11.50;99.90
12335;DHT22;6233;51.560;9.986;2022-11-03T16:25:45;11.50;99.90
12335;DHT22;6233;51.560;9.986;2022-11-03T16:33:10;11.50;99.90
12335;DHT22;6233;51.560;9.986;2022-11-03T16:36:11;11.50;99.90
12335;DHT22;6233;51.560;9.986;2022-11-03T16:39:13;11.50;99.90
12335;DHT22;6233;51.560;9.986;2022-11-03T16:42:14;11.50;99.90
12335;DHT22;6233;51.560;9.986;2022-11-03T16:45:18;11.40;99.90
12335;DHT22;6233;51.560;9.986;2022-11-03T16:48:22;11.40;99.90
12335;DHT22;6233;51.560;9.986;2022-11-03T16:51:24;11.40;99.90
12335;DHT22;6233;51.560;9.986;2022-11-03T16:54:26;11.50;99.90
12335;DHT22;6233;51.560;9.986;2022-11-03T16:57:27;11.60;99.90
12335;DHT22;6233;51.560;9.986;2022-11-03T17:00:29;11.50;99.90
12335;DHT22;6233;51.560;9.986;2022-11-03T17:03:31;11.50;99.90
12335;DHT22;6233;51.560;9.986;2022-11-03T17:06:32;11.50;99.90
12335;DHT22;6233;51.560;9.986;2022-11-03T17:09:34;11.40;99.90
12335;DHT22;6233;51.560;9.986;2022-11-03T17:12:36;11.40;99.90
12335;DHT22;6233;51.560;9.986;2022-11-03T17:15:41;11.50;99.90
12335;DHT22;6233;51.560;9.986;2022-11-03T17:18:42;11.40;99.90
12335;DHT22;6233;51.560;9.986;2022-11-03T17:21:44;11.40;99.90
12335;DHT22;6233;51.560;9.986;2022-11-03T17:24:46;11.50;99.90
12335;DHT22;6233;51.560;9.986;2022-11-03T17:27:58;11.40;99.90
12335;DHT22;6233;51.560;9.986;2022-11-03T17:31:01;11.40;99.90
12335;DHT22;6233;51.560;9.986;2022-11-03T17:34:02;11.40;99.90
12335;DHT22;6233;51.560;9.986;2022-11-03T17:37:05;11.30;99.90
12335;DHT22;6233;51.560;9.986;2022-11-03T17:40:18;11.30;99.90
12335;DHT22;6233;51.560;9.986;2022-11-03T17:43:23;11.30;99.90
12335;DHT22;6233;51.560;9.986;2022-11-03T17:46:25;11.20;99.90
12335;DHT22;6233;51.560;9.986;2022-11-03T17:49:27;11.20;99.90
12335;DHT22;6233;51.560;9.986;2022-11-03T17:52:30;11.20;99.90
12335;DHT22;6233;51.560;9.986;2022-11-03T17:55:35;11.30;99.90
12335;DHT22;6233;51.560;9.986;2022-11-03T17:58:38;11.30;99.90
12335;DHT22;6233;51.560;9.986;2022-11-03T18:01:47;11.20;99.90
12335;DHT22;6233;51.560;9.986;2022-11-03T18:04:49;11.20;99.90
12335;DHT22;6233;51.560;9.986;2022-11-03T18:07:52;11.20;99.90
12335;DHT22;6233;51.560;9.986;2022-11-03T18:10:57;11.30;99.90
12335;DHT22;6233;51.560;9.986;2022-11-03T18:14:25;11.20;99.90
12335;DHT22;6233;51.560;9.986;2022-11-03T18:17:28;11.20;99.90
12335;DHT22;6233;51.560;9.986;2022-11-03T18:20:30;11.20;99.90
12335;DHT22;6233;51.560;9.986;2022-11-03T18:23:33;11.30;99.90
12335;DHT22;6233;51.560;9.986;2022-11-03T18:26:35;11.30;99.90
12335;DHT22;6233;51.560;9.986;2022-11-03T18:29:36;11.30;99.90
12335;DHT22;6233;51.560;9.986;2022-11-03T18:32:39;11.40;99.90
12335;DHT22;6233;51.560;9.986;2022-11-03T18:35:41;11.30;99.90
12335;DHT22;6233;51.560;9.986;2022-11-03T18:38:43;11.30;99.90
12335;DHT22;6233;51.560;9.986;2022-11-03T18:41:45;11.40;99.90
12335;DHT22;6233;51.560;9.986;2022-11-03T18:44:47;11.40;99.90
12335;DHT22;6233;51.560;9.986;2022-11-03T18:47:52;11.30;99.90
12335;DHT22;6233;51.560;9.986;2022-11-03T18:50:55;11.40;99.90
12335;DHT22;6233;51.560;9.986;2022-11-03T18:53:57;11.40;99.90
12335;DHT22;6233;51.560;9.986;2022-11-03T18:56:59;11.40;99.90
12335;DHT22;6233;51.560;9.986;2022-11-03T19:00:03;11.30;99.90
12335;DHT22;6233;51.560;9.986;2022-11-03T19:03:12;11.30;99.90
12335;DHT22;6233;51.560;9.986;2022-11-03T19:06:15;11.30;99.90
12335;DHT22;6233;51.560;9.986;2022-11-03T19:09:24;11.30;99.90
12335;DHT22;6233;51.560;9.986;2022-11-03T19:12:26;11.30;99.90
12335;DHT22;6233;51.560;9.986;2022-11-03T19:15:28;11.30;99.90
12335;DHT22;6233;51.560;9.986;2022-11-03T19:18:33;11.40;99.90
12335;DHT22;6233;51.560;9.986;2022-11-03T19:21:35;11.30;99.90
12335;DHT22;6233;51.560;9.986;2022-11-03T19:24:37;11.40;99.90
12335;DHT22;6233;51.560;9.986;2022-11-03T19:27:43;11.40;99.90
12335;DHT22;6233;51.560;9.986;2022-11-03T19:30:46;11.40;99.90
12335;DHT22;6233;51.560;9.986;2022-11-03T19:33:49;11.40;99.90
12335;DHT22;6233;51.560;9.986;2022-11-03T19:36:51;11.40;99.90
12335;DHT22;6233;51.560;9.986;2022-11-03T19:39:53;11.40;99.90
12335;DHT22;6233;51.560;9.986;2022-11-03T19:42:56;11.40;99.90
12335;DHT22;6233;51.560;9.986;2022-11-03T19:45:58;11.40;99.90
12335;DHT22;6233;51.560;9.986;2022-11-03T19:49:03;11.40;99.90
12335;DHT22;6233;51.560;9.986;2022-11-03T19:52:11;11.50;99.90
12335;DHT22;6233;51.560;9.986;2022-11-03T19:55:16;11.50;99.90
12335;DHT22;6233;51.560;9.986;2022-11-03T19:58:26;11.40;99.90
12335;DHT22;6233;51.560;9.986;2022-11-03T20:01:28;11.40;99.90
12335;DHT22;6233;51.560;9.986;2022-11-03T20:04:30;11.50;99.90
12335;DHT22;6233;51.560;9.986;2022-11-03T20:07:32;11.40;99.90
12335;DHT22;6233;51.560;9.986;2022-11-03T20:10:33;11.50;99.90
12335;DHT22;6233;51.560;9.986;2022-11-03T20:13:39;11.50;99.90
12335;DHT22;6233;51.560;9.986;2022-11-03T20:16:42;11.40;99.90
12335;DHT22;6233;51.560;9.986;2022-11-03T20:19:43;11.50;99.90
12335;DHT22;6233;51.560;9.986;2022-11-03T20:22:48;11.40;99.90
12335;DHT22;6233;51.560;9.986;2022-11-03T20:25:51;11.50;99.90